< < Back
Terminal Aerodrome Forecast


Current Version              Previous Versions:   1  2  3  4  5  6  7  8  9  

Terminal Aerodrome Forecast

292
FTUS44 KOHX 192300
TAFBNA
TAF
KBNA 192330Z 2000/2024 27007KT P6SM SCT050 BKN250
     FM200900 23004KT P6SM SCT011
      TEMPO 2009/2013 BKN011
     FM201400 26006G12KT P6SM SCT035
     FM202000 28007G13KT P6SM SCT045=



Latest METAR

578
SAUS70 KWBC 201000 RRA
MTRBNA
METAR KBNA 200953Z 00000KT 10SM FEW033 26/23 A2992 RMK AO2 SLP123
T02560228


USA.gov is the U.S. government's official web portal to all federal, state and local government web resources and services.